Time;durP1;ratioP1;P1;durP2;ratioP2;P2;SDS_P1;SDS_P2;PMS_P1;PMS_P2;Temp;Humidity;BMP_temperature;BMP_pressure;BME280_temperature;BME280_humidity;BME280_pressure;Samples;Min_cycle;Max_cycle;Signal;HPM_P1;HPM_P2
2023/07/07 00:00:51;;;;;;;8.40;5.40;;;;;;;;;;5042797;28;20418;-70
2023/07/07 00:03:16;;;;;;;9.27;5.32;;;;;;;;;;5046551;28;20020;-70
2023/07/07 00:05:45;;;;;;;8.40;5.10;;;;;;;;;;5044579;28;20024;-69
2023/07/07 00:08:11;;;;;;;8.40;5.07;;;;;;;;;;5045907;28;20025;-70
2023/07/07 00:10:37;;;;;;;9.70;5.30;;;;;;;;;;5046329;28;20032;-68
2023/07/07 00:13:02;;;;;;;8.27;5.13;;;;;;;;;;5028097;28;20100;-70
2023/07/07 00:15:27;;;;;;;11.27;5.47;;;;;;;;;;5046430;28;20449;-69
2023/07/07 00:17:53;;;;;;;9.03;5.83;;;;;;;;;;5061813;28;20505;-70
2023/07/07 00:20:18;;;;;;;11.40;5.90;;;;;;;;;;5062578;28;20381;-69
2023/07/07 00:22:44;;;;;;;10.32;7.30;;;;;;;;;;5050874;28;20271;-68
2023/07/07 00:25:09;;;;;;;9.20;6.78;;;;;;;;;;5051150;28;20090;-69
2023/07/07 00:27:34;;;;;;;10.68;6.55;;;;;;;;;;5055693;28;20020;-69
2023/07/07 00:30:00;;;;;;;8.63;5.80;;;;;;;;;;5050814;28;20024;-69
2023/07/07 00:32:25;;;;;;;8.60;5.60;;;;;;;;;;5048154;28;20593;-69
2023/07/07 00:34:50;;;;;;;7.68;5.55;;;;;;;;;;5062417;28;20020;-70
2023/07/07 00:37:15;;;;;;;8.77;5.50;;;;;;;;;;5041216;28;20127;-68
2023/07/07 00:39:41;;;;;;;9.23;6.10;;;;;;;;;;5055285;28;20327;-68
2023/07/07 00:42:07;;;;;;;8.53;5.70;;;;;;;;;;5055435;28;20513;-68
2023/07/07 00:44:51;;;;;;;10.07;5.57;;;;;;;;;;5054501;28;25707;-66
2023/07/07 00:47:17;;;;;;;9.23;5.75;;;;;;;;;;5049723;28;20033;-68
2023/07/07 00:49:42;;;;;;;9.77;6.28;;;;;;;;;;5035279;28;20064;-70
2023/07/07 00:52:07;;;;;;;8.80;5.57;;;;;;;;;;5050424;28;20033;-70
2023/07/07 00:54:33;;;;;;;8.27;5.67;;;;;;;;;;5051688;28;20596;-67
2023/07/07 00:56:58;;;;;;;7.15;5.13;;;;;;;;;;5061599;28;20320;-68
2023/07/07 00:59:25;;;;;;;7.47;5.43;;;;;;;;;;5034869;28;20499;-68
2023/07/07 01:01:52;;;;;;;8.07;5.40;;;;;;;;;;5061126;28;20085;-68
2023/07/07 01:04:17;;;;;;;8.18;5.38;;;;;;;;;;5064179;28;20037;-66
2023/07/07 01:06:43;;;;;;;7.40;5.35;;;;;;;;;;5041822;28;20507;-69
2023/07/07 01:09:09;;;;;;;8.15;5.75;;;;;;;;;;5045162;28;20601;-69
2023/07/07 01:11:34;;;;;;;8.00;4.93;;;;;;;;;;5063888;28;20136;-67
2023/07/07 01:14:00;;;;;;;10.27;5.93;;;;;;;;;;5051589;28;20671;-68
2023/07/07 01:16:44;;;;;;;8.95;5.28;;;;;;;;;;5050684;28;20037;-69
2023/07/07 01:19:28;;;;;;;9.68;5.50;;;;;;;;;;5053304;28;20044;-69
2023/07/07 01:22:09;;;;;;;8.07;5.40;;;;;;;;;;5049125;28;20033;-71
2023/07/07 01:24:38;;;;;;;7.68;5.40;;;;;;;;;;5049827;28;20043;-69
2023/07/07 01:27:10;;;;;;;8.25;5.18;;;;;;;;;;5068629;28;20024;-70
2023/07/07 01:29:51;;;;;;;5.88;5.05;;;;;;;;;;5052350;28;20051;-65
2023/07/07 01:32:18;;;;;;;7.20;4.78;;;;;;;;;;5050393;28;20075;-67
2023/07/07 01:34:43;;;;;;;6.57;5.22;;;;;;;;;;5051558;28;20167;-69
2023/07/07 01:37:08;;;;;;;7.77;4.90;;;;;;;;;;5062845;28;20116;-68
2023/07/07 01:39:33;;;;;;;8.73;5.53;;;;;;;;;;5063973;28;20068;-69
2023/07/07 01:42:02;;;;;;;7.47;5.37;;;;;;;;;;5058733;28;20060;-69
2023/07/07 01:44:30;;;;;;;10.13;5.30;;;;;;;;;;5049140;28;20691;-69
2023/07/07 01:46:56;;;;;;;7.15;5.43;;;;;;;;;;5048522;28;20150;-69
2023/07/07 01:49:25;;;;;;;9.07;5.43;;;;;;;;;;5030525;28;20239;-69
2023/07/07 01:52:06;;;;;;;7.97;4.90;;;;;;;;;;5049736;28;20346;-69
2023/07/07 01:54:32;;;;;;;8.32;4.80;;;;;;;;;;5048232;28;20113;-68
2023/07/07 01:56:57;;;;;;;8.20;5.72;;;;;;;;;;5066558;28;20116;-69
2023/07/07 01:59:22;;;;;;;7.20;5.67;;;;;;;;;;5057816;28;20047;-69
2023/07/07 02:01:48;;;;;;;9.43;6.15;;;;;;;;;;5030324;28;20813;-70
2023/07/07 02:04:13;;;;;;;9.38;5.95;;;;;;;;;;5031255;28;20021;-68
2023/07/07 02:06:38;;;;;;;8.67;6.00;;;;;;;;;;5049131;28;20033;-69
2023/07/07 02:09:03;;;;;;;7.63;6.17;;;;;;;;;;5065127;28;20939;-69
2023/07/07 02:11:29;;;;;;;7.33;6.30;;;;;;;;;;5059588;28;20607;-69
2023/07/07 02:13:54;;;;;;;9.13;6.73;;;;;;;;;;5048439;28;20267;-70
2023/07/07 02:16:19;;;;;;;8.37;6.57;;;;;;;;;;5048274;28;20279;-68
2023/07/07 02:18:48;;;;;;;7.93;6.13;;;;;;;;;;5047606;28;20275;-68
2023/07/07 02:21:13;;;;;;;8.63;6.82;;;;;;;;;;5066139;28;20274;-69
2023/07/07 02:23:38;;;;;;;8.95;7.18;;;;;;;;;;5055308;28;20405;-69
2023/07/07 02:26:04;;;;;;;9.23;7.23;;;;;;;;;;5038525;28;20416;-69
2023/07/07 02:28:29;;;;;;;8.20;6.57;;;;;;;;;;5034151;28;20084;-70
2023/07/07 02:30:54;;;;;;;10.13;7.07;;;;;;;;;;5047859;28;20067;-69
2023/07/07 02:33:30;;;;;;;8.03;6.83;;;;;;;;;;5060381;28;20278;-69
2023/07/07 02:35:59;;;;;;;11.57;7.82;;;;;;;;;;5051340;28;20280;-69
2023/07/07 02:38:24;;;;;;;9.88;7.95;;;;;;;;;;5053538;28;20048;-69
2023/07/07 02:40:49;;;;;;;11.15;8.60;;;;;;;;;;5058398;28;20416;-69
2023/07/07 02:43:15;;;;;;;10.05;7.55;;;;;;;;;;5040204;28;20037;-69
2023/07/07 02:45:42;;;;;;;12.87;8.30;;;;;;;;;;5047873;28;20043;-68
2023/07/07 02:48:07;;;;;;;9.15;7.60;;;;;;;;;;5066370;28;20344;-69
2023/07/07 02:50:33;;;;;;;9.75;8.05;;;;;;;;;;5067537;28;20448;-70
2023/07/07 02:52:58;;;;;;;10.33;8.83;;;;;;;;;;5049221;28;20040;-69
2023/07/07 02:55:24;;;;;;;10.80;8.77;;;;;;;;;;5067389;28;20522;-68
2023/07/07 02:57:49;;;;;;;9.15;8.07;;;;;;;;;;5050118;28;20951;-69
2023/07/07 03:00:15;;;;;;;11.70;8.67;;;;;;;;;;5047301;28;20041;-69
2023/07/07 03:02:40;;;;;;;10.93;8.75;;;;;;;;;;5047037;28;21033;-68
2023/07/07 03:05:06;;;;;;;12.53;8.90;;;;;;;;;;5047308;28;20044;-68
2023/07/07 03:07:31;;;;;;;9.82;8.32;;;;;;;;;;5047394;28;21179;-67
2023/07/07 03:09:56;;;;;;;10.30;8.40;;;;;;;;;;5066500;28;20041;-68
2023/07/07 03:12:21;;;;;;;10.17;8.80;;;;;;;;;;5066359;28;20273;-68
2023/07/07 03:14:46;;;;;;;11.00;9.10;;;;;;;;;;5061992;28;20154;-69
2023/07/07 03:17:12;;;;;;;10.07;9.03;;;;;;;;;;5041936;28;20298;-68
2023/07/07 03:19:40;;;;;;;10.25;8.80;;;;;;;;;;5049710;28;20541;-68
2023/07/07 03:22:05;;;;;;;10.98;9.05;;;;;;;;;;5046637;28;20063;-68
2023/07/07 03:24:31;;;;;;;13.10;9.13;;;;;;;;;;5047264;28;20519;-69
2023/07/07 03:26:56;;;;;;;10.73;9.50;;;;;;;;;;5050275;28;20310;-66
2023/07/07 03:29:21;;;;;;;12.82;10.40;;;;;;;;;;5064506;28;20037;-67
2023/07/07 03:31:47;;;;;;;12.33;9.67;;;;;;;;;;5066780;28;20474;-68
2023/07/07 03:34:13;;;;;;;11.80;9.70;;;;;;;;;;5066076;28;20271;-68
2023/07/07 03:36:38;;;;;;;12.50;9.80;;;;;;;;;;5050033;28;20045;-69
2023/07/07 03:39:03;;;;;;;13.10;10.20;;;;;;;;;;5048067;28;20036;-69
2023/07/07 03:41:28;;;;;;;13.30;10.55;;;;;;;;;;5059631;28;20267;-69
2023/07/07 03:43:54;;;;;;;13.05;10.85;;;;;;;;;;5033475;28;20062;-69
2023/07/07 03:46:21;;;;;;;12.10;10.18;;;;;;;;;;5046562;28;20083;-69
2023/07/07 03:48:46;;;;;;;13.85;10.65;;;;;;;;;;5051726;28;20033;-67
2023/07/07 03:51:12;;;;;;;13.65;11.73;;;;;;;;;;5058832;28;20040;-68
2023/07/07 03:53:37;;;;;;;13.77;10.98;;;;;;;;;;5066728;28;20106;-68
2023/07/07 03:56:03;;;;;;;13.77;11.30;;;;;;;;;;5048920;28;20044;-69
2023/07/07 03:58:28;;;;;;;15.70;11.55;;;;;;;;;;5062140;28;20306;-69
2023/07/07 04:00:53;;;;;;;14.30;11.98;;;;;;;;;;5045998;28;20033;-69
2023/07/07 04:03:19;;;;;;;14.67;11.43;;;;;;;;;;5046520;28;20033;-69
2023/07/07 04:05:44;;;;;;;16.27;12.63;;;;;;;;;;5058135;28;20044;-69
2023/07/07 04:08:10;;;;;;;14.35;11.70;;;;;;;;;;5064479;28;20025;-69
2023/07/07 04:10:35;;;;;;;14.80;11.90;;;;;;;;;;5049164;28;20048;-67
2023/07/07 04:13:00;;;;;;;14.47;12.03;;;;;;;;;;5063645;23;20053;-70
2023/07/07 04:15:25;;;;;;;14.50;12.80;;;;;;;;;;5063425;28;20352;-72
2023/07/07 04:17:51;;;;;;;16.87;13.10;;;;;;;;;;5028437;28;20348;-70
2023/07/07 04:20:16;;;;;;;15.83;12.47;;;;;;;;;;5061396;28;20310;-71
2023/07/07 04:22:41;;;;;;;14.23;12.67;;;;;;;;;;5046655;28;20530;-72
2023/07/07 04:25:07;;;;;;;15.05;12.63;;;;;;;;;;5046498;28;20285;-72
2023/07/07 04:27:32;;;;;;;15.93;12.65;;;;;;;;;;5064128;28;20060;-72
2023/07/07 04:29:58;;;;;;;15.87;12.57;;;;;;;;;;5062705;28;20057;-71
2023/07/07 04:32:23;;;;;;;16.23;13.20;;;;;;;;;;5056046;28;20041;-74
2023/07/07 04:34:48;;;;;;;15.57;13.38;;;;;;;;;;5065074;28;20278;-75
2023/07/07 04:37:13;;;;;;;17.90;13.13;;;;;;;;;;5063566;28;20154;-68
2023/07/07 04:39:39;;;;;;;19.65;13.82;;;;;;;;;;5036181;28;20333;-68
2023/07/07 04:42:04;;;;;;;16.50;13.90;;;;;;;;;;5034945;28;20456;-66
2023/07/07 04:44:29;;;;;;;17.58;14.43;;;;;;;;;;5033898;28;20412;-66
2023/07/07 04:46:54;;;;;;;18.07;13.63;;;;;;;;;;5055186;28;20428;-69
2023/07/07 04:49:23;;;;;;;16.45;13.30;;;;;;;;;;5056148;28;20491;-68
2023/07/07 04:51:48;;;;;;;16.23;13.85;;;;;;;;;;5055997;28;20047;-70
2023/07/07 04:54:13;;;;;;;15.53;13.13;;;;;;;;;;5055998;28;20127;-67
2023/07/07 04:56:39;;;;;;;18.60;13.57;;;;;;;;;;5058420;28;20318;-67
2023/07/07 04:59:05;;;;;;;15.70;13.65;;;;;;;;;;5054797;28;20029;-65
2023/07/07 05:01:30;;;;;;;19.15;14.23;;;;;;;;;;5051812;28;20860;-68
2023/07/07 05:04:00;;;;;;;17.23;13.63;;;;;;;;;;5051812;28;20041;-66
2023/07/07 05:06:27;;;;;;;17.42;14.13;;;;;;;;;;5046196;28;20040;-71
2023/07/07 05:08:52;;;;;;;15.10;13.15;;;;;;;;;;5044493;28;20067;-66
2023/07/07 05:11:18;;;;;;;17.33;13.20;;;;;;;;;;5056286;28;20497;-67
2023/07/07 05:13:46;;;;;;;18.77;13.20;;;;;;;;;;5057261;28;20032;-64
2023/07/07 05:16:12;;;;;;;16.38;13.15;;;;;;;;;;5062664;28;20113;-68
2023/07/07 05:18:37;;;;;;;15.30;13.30;;;;;;;;;;5056491;28;20041;-68
2023/07/07 05:21:03;;;;;;;17.45;13.68;;;;;;;;;;5059875;28;20532;-63
2023/07/07 05:23:28;;;;;;;19.02;14.30;;;;;;;;;;5055152;28;20620;-64
2023/07/07 05:25:53;;;;;;;16.70;13.40;;;;;;;;;;5057538;28;20141;-66
2023/07/07 05:28:19;;;;;;;16.40;13.57;;;;;;;;;;5039612;28;20059;-67
2023/07/07 05:30:44;;;;;;;19.88;13.90;;;;;;;;;;5054086;28;20315;-62
2023/07/07 05:33:09;;;;;;;15.90;13.57;;;;;;;;;;5034808;28;20312;-60
2023/07/07 05:35:35;;;;;;;18.63;14.15;;;;;;;;;;5053027;28;20292;-68
2023/07/07 05:38:00;;;;;;;18.07;14.33;;;;;;;;;;5054045;28;20493;-63
2023/07/07 05:40:28;;;;;;;16.60;13.90;;;;;;;;;;5055389;28;20517;-63
2023/07/07 05:42:54;;;;;;;17.73;13.02;;;;;;;;;;5055639;28;20497;-64
2023/07/07 05:45:19;;;;;;;15.82;12.75;;;;;;;;;;5055088;28;20078;-61
2023/07/07 05:47:44;;;;;;;17.95;13.05;;;;;;;;;;5053602;28;20045;-63
2023/07/07 05:50:10;;;;;;;18.75;13.70;;;;;;;;;;5042709;28;20094;-64
2023/07/07 05:52:35;;;;;;;18.45;13.80;;;;;;;;;;5052294;28;20033;-67
2023/07/07 05:55:02;;;;;;;17.17;14.37;;;;;;;;;;5055891;28;20501;-62
2023/07/07 05:57:28;;;;;;;17.77;13.70;;;;;;;;;;5054581;28;20337;-61
2023/07/07 05:59:53;;;;;;;16.63;13.75;;;;;;;;;;5053204;28;20037;-62
2023/07/07 06:02:18;;;;;;;17.35;14.20;;;;;;;;;;5034213;28;20116;-61
2023/07/07 06:04:44;;;;;;;16.30;13.50;;;;;;;;;;5051664;28;20117;-64
2023/07/07 06:07:09;;;;;;;17.50;14.27;;;;;;;;;;5056494;28;20834;-68
2023/07/07 06:09:34;;;;;;;15.88;14.05;;;;;;;;;;5035425;28;20299;-61
2023/07/07 06:12:01;;;;;;;17.58;13.70;;;;;;;;;;5052502;28;20098;-62
2023/07/07 06:14:26;;;;;;;19.48;13.20;;;;;;;;;;5036098;28;20494;-59
2023/07/07 06:16:51;;;;;;;17.03;14.27;;;;;;;;;;5055266;28;20178;-60
2023/07/07 06:19:17;;;;;;;17.40;13.53;;;;;;;;;;5051705;28;20299;-60
2023/07/07 06:21:42;;;;;;;17.07;13.87;;;;;;;;;;5035204;28;20690;-60
2023/07/07 06:24:07;;;;;;;16.90;14.10;;;;;;;;;;5050993;28;20025;-60
2023/07/07 06:26:32;;;;;;;18.43;13.70;;;;;;;;;;5033374;28;20381;-60
2023/07/07 06:28:58;;;;;;;17.63;13.53;;;;;;;;;;5050957;28;20078;-60
2023/07/07 06:31:23;;;;;;;17.23;13.83;;;;;;;;;;5050877;28;20067;-59
2023/07/07 06:33:49;;;;;;;17.90;13.82;;;;;;;;;;5051883;28;20303;-59
2023/07/07 06:36:14;;;;;;;16.52;13.98;;;;;;;;;;5052590;28;20033;-59
2023/07/07 06:38:39;;;;;;;16.20;13.13;;;;;;;;;;5052717;28;20144;-58
2023/07/07 06:41:04;;;;;;;17.05;13.10;;;;;;;;;;5050884;28;20322;-60
2023/07/07 06:43:30;;;;;;;14.93;12.93;;;;;;;;;;5033808;28;20470;-61
2023/07/07 06:45:56;;;;;;;17.95;13.48;;;;;;;;;;5051261;28;20314;-60
2023/07/07 06:48:21;;;;;;;17.58;13.15;;;;;;;;;;5050301;28;20529;-60
2023/07/07 06:50:47;;;;;;;17.13;13.15;;;;;;;;;;5049053;28;20048;-59
2023/07/07 06:53:12;;;;;;;19.15;13.45;;;;;;;;;;5028712;28;20163;-58
2023/07/07 06:55:38;;;;;;;14.98;12.85;;;;;;;;;;5029653;28;20029;-59
2023/07/07 06:58:03;;;;;;;16.00;13.02;;;;;;;;;;5049385;28;20044;-60
2023/07/07 07:00:29;;;;;;;16.60;12.93;;;;;;;;;;5049621;28;20324;-60
2023/07/07 07:02:54;;;;;;;14.95;12.32;;;;;;;;;;5047568;28;20505;-59
2023/07/07 07:05:19;;;;;;;15.48;12.07;;;;;;;;;;5050642;28;20045;-59
2023/07/07 07:07:45;;;;;;;16.48;12.70;;;;;;;;;;5048880;28;20111;-60
2023/07/07 07:10:10;;;;;;;14.57;11.82;;;;;;;;;;5030969;28;20060;-60
2023/07/07 07:12:35;;;;;;;16.70;11.70;;;;;;;;;;5049633;28;20504;-59
2023/07/07 07:15:00;;;;;;;13.43;11.48;;;;;;;;;;5050733;28;20090;-59
2023/07/07 07:17:26;;;;;;;13.47;11.83;;;;;;;;;;5020999;28;20059;-59
2023/07/07 07:19:51;;;;;;;13.40;11.50;;;;;;;;;;5046781;28;20307;-60
2023/07/07 07:22:17;;;;;;;14.80;12.00;;;;;;;;;;5033279;28;20033;-59
2023/07/07 07:24:42;;;;;;;17.70;12.73;;;;;;;;;;5049763;28;20071;-61
2023/07/07 07:27:07;;;;;;;13.67;11.30;;;;;;;;;;5051349;28;20290;-59
2023/07/07 07:29:32;;;;;;;15.05;11.63;;;;;;;;;;5039239;28;20381;-59
2023/07/07 07:31:58;;;;;;;14.45;11.60;;;;;;;;;;5051530;28;20037;-59
2023/07/07 07:34:27;;;;;;;14.47;12.03;;;;;;;;;;5048351;28;20069;-59
2023/07/07 07:36:52;;;;;;;14.57;11.53;;;;;;;;;;5032856;28;20764;-60
2023/07/07 07:39:18;;;;;;;14.77;11.95;;;;;;;;;;5038421;28;20063;-60
2023/07/07 07:41:44;;;;;;;14.63;11.63;;;;;;;;;;5044471;28;20060;-60
2023/07/07 07:44:10;;;;;;;15.32;11.50;;;;;;;;;;5029212;28;20966;-61
2023/07/07 07:46:35;;;;;;;13.23;11.60;;;;;;;;;;5063334;28;20135;-61
2023/07/07 07:49:00;;;;;;;12.87;11.47;;;;;;;;;;5032822;28;20489;-61
2023/07/07 07:51:26;;;;;;;13.53;11.70;;;;;;;;;;5061021;28;20274;-60
2023/07/07 07:53:51;;;;;;;15.50;12.02;;;;;;;;;;5061302;28;20291;-61
2023/07/07 07:56:16;;;;;;;14.50;12.17;;;;;;;;;;5045140;28;20032;-60
2023/07/07 07:58:41;;;;;;;14.97;12.13;;;;;;;;;;5057361;28;20287;-60
2023/07/07 08:01:07;;;;;;;15.43;12.47;;;;;;;;;;5043546;28;20283;-60
2023/07/07 08:03:32;;;;;;;13.88;12.30;;;;;;;;;;5025745;28;20044;-60
2023/07/07 08:05:57;;;;;;;16.33;12.27;;;;;;;;;;5058266;28;20036;-60
2023/07/07 08:08:23;;;;;;;14.70;12.45;;;;;;;;;;5051064;28;20337;-59
2023/07/07 08:10:48;;;;;;;14.45;11.98;;;;;;;;;;5032246;28;20028;-60
2023/07/07 08:13:13;;;;;;;16.85;12.15;;;;;;;;;;5045780;28;20041;-60
2023/07/07 08:15:38;;;;;;;13.00;11.60;;;;;;;;;;5058742;28;20044;-60
2023/07/07 08:18:04;;;;;;;17.17;12.23;;;;;;;;;;5052149;28;20139;-60
2023/07/07 08:20:30;;;;;;;14.37;10.93;;;;;;;;;;5043951;28;20283;-59
2023/07/07 08:22:56;;;;;;;13.60;11.45;;;;;;;;;;5041434;28;20299;-62
2023/07/07 08:25:21;;;;;;;14.93;11.82;;;;;;;;;;5055962;28;20033;-61
2023/07/07 08:27:46;;;;;;;15.90;11.80;;;;;;;;;;5056477;28;20036;-59
2023/07/07 08:30:11;;;;;;;18.13;11.80;;;;;;;;;;5045183;28;20850;-62
2023/07/07 08:32:37;;;;;;;15.18;12.00;;;;;;;;;;5060040;28;20281;-62
2023/07/07 08:35:02;;;;;;;14.00;12.17;;;;;;;;;;5054760;28;20041;-62
2023/07/07 08:37:27;;;;;;;13.05;11.10;;;;;;;;;;5042696;28;20319;-61
2023/07/07 08:39:53;;;;;;;15.48;10.68;;;;;;;;;;5041796;28;20131;-61
2023/07/07 08:42:18;;;;;;;15.82;12.10;;;;;;;;;;5050761;28;20420;-60
2023/07/07 08:44:43;;;;;;;13.97;10.87;;;;;;;;;;5063098;28;20028;-62
2023/07/07 08:47:24;;;;;;;17.55;11.63;;;;;;;;;;5062251;28;20477;-62
2023/07/07 08:49:49;;;;;;;16.00;11.43;;;;;;;;;;5069402;28;20041;-61
2023/07/07 08:52:23;;;;;;;11.97;10.57;;;;;;;;;;5055274;28;20033;-61
2023/07/07 08:55:07;;;;;;;14.55;11.38;;;;;;;;;;5056916;28;20040;-61
2023/07/07 08:57:35;;;;;;;12.25;10.25;;;;;;;;;;5062275;28;20060;-62
2023/07/07 09:00:03;;;;;;;13.70;10.77;;;;;;;;;;5066989;28;20081;-61
2023/07/07 09:02:33;;;;;;;13.80;10.95;;;;;;;;;;5049696;28;20041;-61
2023/07/07 09:05:13;;;;;;;13.50;10.88;;;;;;;;;;5039638;28;20029;-61
2023/07/07 09:07:48;;;;;;;12.82;9.95;;;;;;;;;;5046532;28;20531;-61
2023/07/07 09:10:34;;;;;;;12.45;10.38;;;;;;;;;;5059531;28;20036;-62
2023/07/07 09:13:01;;;;;;;13.38;10.88;;;;;;;;;;5026736;28;20044;-61
2023/07/07 09:15:28;;;;;;;14.45;10.90;;;;;;;;;;5047691;28;20037;-60
2023/07/07 09:17:54;;;;;;;14.48;10.95;;;;;;;;;;5046729;28;20717;-60
2023/07/07 09:20:21;;;;;;;13.68;10.38;;;;;;;;;;5041118;28;20135;-61
2023/07/07 09:22:47;;;;;;;13.40;10.80;;;;;;;;;;5013718;28;20056;-59
2023/07/07 09:25:31;;;;;;;12.43;10.48;;;;;;;;;;5038574;28;20025;-62
2023/07/07 09:28:00;;;;;;;13.05;10.65;;;;;;;;;;5060686;28;20143;-61
2023/07/07 09:30:31;;;;;;;14.23;10.47;;;;;;;;;;5036676;28;20037;-61
2023/07/07 09:32:57;;;;;;;14.05;10.40;;;;;;;;;;5066336;28;20297;-61
2023/07/07 09:35:22;;;;;;;12.65;9.65;;;;;;;;;;5065559;28;20453;-62
2023/07/07 09:37:51;;;;;;;13.40;10.55;;;;;;;;;;5038282;28;22260;-61
2023/07/07 09:40:21;;;;;;;12.43;10.15;;;;;;;;;;5050789;28;20094;-61
2023/07/07 09:42:47;;;;;;;12.27;9.70;;;;;;;;;;5051035;28;20675;-61
2023/07/07 09:45:15;;;;;;;11.70;9.85;;;;;;;;;;5050375;28;20033;-62
2023/07/07 09:47:48;;;;;;;11.90;9.68;;;;;;;;;;5050222;28;20065;-60
2023/07/07 09:50:15;;;;;;;11.95;9.77;;;;;;;;;;5038918;28;20074;-61
2023/07/07 09:52:40;;;;;;;11.93;9.45;;;;;;;;;;5038551;28;20041;-61
2023/07/07 09:55:17;;;;;;;10.33;9.23;;;;;;;;;;5051467;28;20037;-61
2023/07/07 09:57:43;;;;;;;11.40;9.40;;;;;;;;;;5032377;28;20061;-62
2023/07/07 10:00:13;;;;;;;11.52;9.75;;;;;;;;;;5050165;28;20017;-62
2023/07/07 10:02:38;;;;;;;12.07;9.80;;;;;;;;;;5050694;28;20346;-60
2023/07/07 10:05:05;;;;;;;14.13;10.05;;;;;;;;;;5052221;28;20503;-62
2023/07/07 10:07:40;;;;;;;11.82;9.75;;;;;;;;;;5032266;28;20033;-61
2023/07/07 10:10:06;;;;;;;11.68;9.57;;;;;;;;;;5039380;28;20044;-61
2023/07/07 10:12:31;;;;;;;11.43;9.10;;;;;;;;;;5032634;28;20041;-61
2023/07/07 10:14:57;;;;;;;11.13;9.03;;;;;;;;;;5052210;28;20061;-61
2023/07/07 10:17:38;;;;;;;11.45;10.10;;;;;;;;;;5056312;28;20060;-62
2023/07/07 10:20:03;;;;;;;11.32;9.18;;;;;;;;;;5052900;28;20060;-62
2023/07/07 10:22:29;;;;;;;11.52;10.00;;;;;;;;;;5049532;28;20487;-61
2023/07/07 10:24:55;;;;;;;11.18;8.98;;;;;;;;;;5050097;28;20154;-62
2023/07/07 10:27:23;;;;;;;12.33;9.50;;;;;;;;;;5031855;28;20041;-61
2023/07/07 10:29:49;;;;;;;13.57;9.38;;;;;;;;;;5050466;28;20328;-61
2023/07/07 10:32:15;;;;;;;11.55;8.57;;;;;;;;;;5050395;28;20037;-61
2023/07/07 10:34:41;;;;;;;11.25;9.07;;;;;;;;;;5037805;28;20049;-62
2023/07/07 10:37:16;;;;;;;9.90;8.68;;;;;;;;;;5031467;28;20044;-61
2023/07/07 10:39:42;;;;;;;10.93;8.30;;;;;;;;;;5049403;28;20059;-60
2023/07/07 10:42:08;;;;;;;10.68;8.90;;;;;;;;;;5036598;28;20037;-61
2023/07/07 10:44:33;;;;;;;10.95;8.48;;;;;;;;;;5049581;28;20029;-61
2023/07/07 10:46:59;;;;;;;11.70;8.05;;;;;;;;;;5032547;28;20103;-60
2023/07/07 10:49:25;;;;;;;10.77;8.40;;;;;;;;;;5051084;28;20067;-62
2023/07/07 10:51:58;;;;;;;10.68;8.50;;;;;;;;;;5019092;28;20040;-61
2023/07/07 10:54:36;;;;;;;10.02;8.70;;;;;;;;;;5032585;28;20132;-61
2023/07/07 10:57:09;;;;;;;11.90;8.33;;;;;;;;;;5049816;28;20103;-61
2023/07/07 10:59:37;;;;;;;12.57;8.98;;;;;;;;;;5037320;28;20350;-62
2023/07/07 11:02:22;;;;;;;10.68;8.35;;;;;;;;;;5037094;28;20280;-59
2023/07/07 11:04:50;;;;;;;10.15;8.18;;;;;;;;;;5054833;28;20055;-60
2023/07/07 11:07:18;;;;;;;13.20;8.75;;;;;;;;;;5053044;28;20043;-61
2023/07/07 11:09:59;;;;;;;10.60;8.70;;;;;;;;;;5032386;28;20036;-62
2023/07/07 11:12:25;;;;;;;11.20;8.45;;;;;;;;;;5050310;28;20044;-60
2023/07/07 11:14:53;;;;;;;10.85;8.43;;;;;;;;;;5053696;28;20346;-59
2023/07/07 11:17:37;;;;;;;9.68;8.15;;;;;;;;;;5034770;28;20041;-61
2023/07/07 11:20:06;;;;;;;9.85;8.23;;;;;;;;;;5049434;28;20604;-59
2023/07/07 11:22:50;;;;;;;10.90;8.57;;;;;;;;;;5052584;28;20040;-61
2023/07/07 11:25:18;;;;;;;10.82;8.20;;;;;;;;;;5036137;28;20036;-60
2023/07/07 11:27:47;;;;;;;10.25;8.32;;;;;;;;;;5036930;28;21430;-60
2023/07/07 11:30:19;;;;;;;10.40;8.47;;;;;;;;;;5032618;28;20494;-60
2023/07/07 11:33:03;;;;;;;9.68;6.18;;;;;;;;;;5053184;28;20411;-61
2023/07/07 11:35:34;;;;;;;8.30;5.45;;;;;;;;;;5048411;28;20043;-61
2023/07/07 11:38:16;;;;;;;7.68;5.47;;;;;;;;;;5051114;28;20449;-61
2023/07/07 11:40:41;;;;;;;6.35;4.55;;;;;;;;;;5038944;28;20167;-61
2023/07/07 11:43:15;;;;;;;6.40;4.47;;;;;;;;;;5050511;28;20211;-62
2023/07/07 11:45:40;;;;;;;7.53;4.75;;;;;;;;;;5039284;28;20827;-58
2023/07/07 11:48:05;;;;;;;6.73;4.37;;;;;;;;;;5053271;28;20040;-58
2023/07/07 11:50:39;;;;;;;7.40;4.82;;;;;;;;;;5049393;28;20040;-59
2023/07/07 11:53:13;;;;;;;8.52;5.25;;;;;;;;;;5049513;28;20052;-61
2023/07/07 11:55:42;;;;;;;7.72;5.25;;;;;;;;;;5043038;28;20135;-60
2023/07/07 11:58:16;;;;;;;7.43;5.10;;;;;;;;;;5041848;28;20525;-60
2023/07/07 12:00:46;;;;;;;7.78;5.20;;;;;;;;;;5029537;28;20067;-60
2023/07/07 12:03:20;;;;;;;6.93;4.93;;;;;;;;;;5058048;28;20033;-60
2023/07/07 12:05:45;;;;;;;7.47;5.47;;;;;;;;;;5052658;28;20029;-62
2023/07/07 12:08:15;;;;;;;8.70;5.33;;;;;;;;;;5036192;28;20021;-62
2023/07/07 12:10:40;;;;;;;;;;;;;;;;;;5036795;28;20294;-62
2023/07/07 12:13:08;;;;;;;8.60;5.63;;;;;;;;;;5049530;28;19928;-62
2023/07/07 12:15:38;;;;;;;12.18;6.03;;;;;;;;;;5059497;28;20017;-62
2023/07/07 12:18:04;;;;;;;9.35;5.80;;;;;;;;;;5055922;28;20029;-60
2023/07/07 12:20:30;;;;;;;11.43;6.87;;;;;;;;;;5047624;28;20028;-62
2023/07/07 12:22:55;;;;;;;11.73;5.85;;;;;;;;;;5044997;28;20028;-62
2023/07/07 12:25:27;;;;;;;10.35;6.38;;;;;;;;;;5045101;28;20504;-60
2023/07/07 12:27:53;;;;;;;9.68;5.80;;;;;;;;;;5045195;28;20134;-59
2023/07/07 12:30:19;;;;;;;10.07;6.20;;;;;;;;;;5030872;28;20036;-61
2023/07/07 12:32:45;;;;;;;8.52;5.72;;;;;;;;;;5046731;28;20118;-61
2023/07/07 12:35:16;;;;;;;10.73;6.30;;;;;;;;;;5064403;28;20113;-60
2023/07/07 12:37:42;;;;;;;10.60;6.15;;;;;;;;;;5065614;28;20365;-59
2023/07/07 12:40:11;;;;;;;9.52;6.40;;;;;;;;;;5053407;28;20052;-61
2023/07/07 12:42:39;;;;;;;9.35;5.93;;;;;;;;;;5060286;28;20032;-61
2023/07/07 12:45:08;;;;;;;9.07;5.85;;;;;;;;;;5022841;28;20371;-60
2023/07/07 12:47:33;;;;;;;8.10;5.50;;;;;;;;;;5051199;28;20052;-62
2023/07/07 12:49:59;;;;;;;9.38;5.80;;;;;;;;;;5042923;28;20063;-60
2023/07/07 12:52:26;;;;;;;11.38;6.05;;;;;;;;;;5030135;28;20542;-59
2023/07/07 12:54:52;;;;;;;9.82;5.95;;;;;;;;;;5041149;28;20040;-61
2023/07/07 12:57:17;;;;;;;9.00;6.03;;;;;;;;;;5057360;28;20107;-59
2023/07/07 12:59:42;;;;;;;8.38;5.85;;;;;;;;;;5054785;28;20032;-59
2023/07/07 13:02:14;;;;;;;9.87;6.00;;;;;;;;;;5039578;28;20082;-61
2023/07/07 13:04:41;;;;;;;8.45;5.78;;;;;;;;;;5035302;28;20295;-60
2023/07/07 13:07:07;;;;;;;10.27;5.88;;;;;;;;;;5049850;28;20515;-60
2023/07/07 13:09:42;;;;;;;10.63;5.80;;;;;;;;;;5043188;28;20041;-60
2023/07/07 13:12:30;;;;;;;8.57;5.53;;;;;;;;;;5061529;28;20049;-60
2023/07/07 13:15:01;;;;;;;8.45;5.72;;;;;;;;;;5057915;28;20461;-60
2023/07/07 13:17:27;;;;;;;6.75;4.95;;;;;;;;;;5053629;28;20044;-60
2023/07/07 13:19:56;;;;;;;7.18;5.50;;;;;;;;;;5042695;28;20037;-60
2023/07/07 13:22:24;;;;;;;7.93;5.43;;;;;;;;;;5042840;28;20622;-59
2023/07/07 13:24:49;;;;;;;8.15;5.57;;;;;;;;;;5044018;28;20037;-60
2023/07/07 13:27:15;;;;;;;8.45;5.50;;;;;;;;;;5057848;28;20530;-60
2023/07/07 13:29:40;;;;;;;10.45;5.72;;;;;;;;;;5043449;28;20025;-61
2023/07/07 13:32:06;;;;;;;7.65;4.95;;;;;;;;;;5050689;28;20033;-59
2023/07/07 13:34:33;;;;;;;7.63;5.43;;;;;;;;;;5061306;28;20132;-59
2023/07/07 13:37:03;;;;;;;10.25;5.35;;;;;;;;;;5045606;28;20041;-59
2023/07/07 13:39:28;;;;;;;5.85;4.55;;;;;;;;;;5026761;28;20602;-60
2023/07/07 13:41:56;;;;;;;8.00;5.30;;;;;;;;;;5045179;28;20076;-60
2023/07/07 13:44:21;;;;;;;8.75;5.50;;;;;;;;;;5041667;28;20126;-59
2023/07/07 13:46:50;;;;;;;8.00;5.18;;;;;;;;;;5057519;28;20029;-60
2023/07/07 13:49:15;;;;;;;6.75;4.95;;;;;;;;;;5064799;28;20040;-61
2023/07/07 13:51:41;;;;;;;6.07;5.00;;;;;;;;;;5064775;28;20032;-61
2023/07/07 13:54:08;;;;;;;7.00;4.97;;;;;;;;;;5049016;28;20247;-60
2023/07/07 13:56:33;;;;;;;7.32;5.20;;;;;;;;;;5065124;28;20072;-59
2023/07/07 13:59:00;;;;;;;7.53;5.28;;;;;;;;;;5063583;28;20134;-61
2023/07/07 14:01:27;;;;;;;6.88;4.90;;;;;;;;;;5063197;28;20090;-60
2023/07/07 14:03:53;;;;;;;8.18;5.40;;;;;;;;;;5046903;28;20202;-61
2023/07/07 14:06:18;;;;;;;7.22;4.47;;;;;;;;;;5047179;28;20493;-62
2023/07/07 14:08:43;;;;;;;7.27;5.40;;;;;;;;;;5044240;28;20029;-61
2023/07/07 14:11:15;;;;;;;6.37;4.73;;;;;;;;;;5064409;28;20270;-61
2023/07/07 14:13:40;;;;;;;7.13;4.85;;;;;;;;;;5050939;28;20321;-62
2023/07/07 14:16:07;;;;;;;6.68;5.18;;;;;;;;;;5050851;28;20489;-60
2023/07/07 14:18:55;;;;;;;8.32;5.40;;;;;;;;;;5024606;28;20856;-59
2023/07/07 14:21:21;;;;;;;7.55;5.05;;;;;;;;;;5033811;28;20068;-59
2023/07/07 14:23:46;;;;;;;8.27;5.60;;;;;;;;;;5049634;28;20138;-60
2023/07/07 14:26:15;;;;;;;7.20;5.50;;;;;;;;;;5062700;28;20117;-59
2023/07/07 14:28:40;;;;;;;9.03;5.77;;;;;;;;;;5046077;28;20031;-61